Terminal Aerodrome Forecast
Issued by NWS Austin/San Antonio, TX

Home | Current Version | Previous Version | Text Only | Print | Product List | Glossary On
Versions: 1 2 3 4 5 6 7 8 9 10 11 12 13 14 15 16 17 18 19 20 21 22
000
FTUS44 KEWX 280200 AAA
TAFAUS
TAF AMD
KAUS 280200Z 2802/0106 03012KT 5SM BR OVC020
      TEMPO 2802/2806 4SM -FZDZ
     FM280600 03010KT 4SM -DZ BR BKN008 OVC015
     FM282200 07005KT 2SM BR OVC005=

USA.gov is the U.S. government's official web portal to all federal, state and local government web resources and services.